createdAt,value
2022-11-10T00:00:48.129Z,101645.13
2022-11-10T00:03:14.521Z,101653.94
2022-11-10T00:05:40.847Z,101656.59
2022-11-10T00:08:10.152Z,101659.28
2022-11-10T00:10:56.893Z,101655.91
2022-11-10T00:13:26.993Z,101665.38
2022-11-10T00:16:12.571Z,101656.72
2022-11-10T00:18:39.104Z,101661.09
2022-11-10T00:21:08.305Z,101664.59
2022-11-10T00:23:35.237Z,101665.53
2022-11-10T00:26:01.786Z,101677.72
2022-11-10T00:28:31.302Z,101675.19
2022-11-10T00:30:58.746Z,101670.97
2022-11-10T00:33:25.181Z,101658.81
2022-11-10T00:35:51.926Z,101671.94
2022-11-10T00:38:18.257Z,101669.41
2022-11-10T00:40:44.659Z,101666.81
2022-11-10T00:43:10.998Z,101669.41
2022-11-10T00:45:43.995Z,101679.03
2022-11-10T00:48:10.332Z,101680.78
2022-11-10T00:50:36.664Z,101687.78
2022-11-10T00:53:03.370Z,101685.25
2022-11-10T00:55:29.750Z,101691.38
2022-11-10T00:57:56.098Z,101694.00
2022-11-10T01:00:22.503Z,101696.53
2022-11-10T01:02:48.890Z,101700.94
2022-11-10T01:05:15.280Z,101707.06
2022-11-10T01:07:41.594Z,101713.19
2022-11-10T01:10:08.192Z,101709.66
2022-11-10T01:12:34.543Z,101707.06
2022-11-10T01:15:00.896Z,101705.34
2022-11-10T01:17:29.741Z,101710.56
2022-11-10T01:19:56.200Z,101709.72
2022-11-10T01:22:22.643Z,101712.34
2022-11-10T01:24:49.041Z,101714.94
2022-11-10T01:27:15.399Z,101708.13
2022-11-10T01:29:41.791Z,101713.28
2022-11-10T01:32:08.179Z,101709.75
2022-11-10T01:34:34.530Z,101727.97
2022-11-10T01:37:00.922Z,101715.00
2022-11-10T01:39:27.268Z,101718.50
2022-11-10T01:41:53.662Z,101722.88
2022-11-10T01:44:23.656Z,101720.28
2022-11-10T01:46:50.282Z,101712.50
2022-11-10T01:49:22.341Z,101721.13
2022-11-10T01:51:54.055Z,101727.19
2022-11-10T01:54:30.875Z,101730.72
2022-11-10T01:57:05.428Z,101735.06
2022-11-10T01:59:35.597Z,101742.91
2022-11-10T02:02:15.621Z,101747.28
2022-11-10T02:04:42.677Z,101752.50
2022-11-10T02:07:10.459Z,101757.72
2022-11-10T02:09:37.106Z,101761.28
2022-11-10T02:12:04.243Z,101759.50
2022-11-10T02:14:30.967Z,101758.66
2022-11-10T02:16:57.486Z,101762.09
2022-11-10T02:19:26.219Z,101766.44
2022-11-10T02:21:52.551Z,101766.44
2022-11-10T02:24:19.136Z,101765.56
2022-11-10T02:26:50.289Z,101768.16
2022-11-10T02:29:16.636Z,101766.50
2022-11-10T02:31:43.226Z,101766.50
2022-11-10T02:34:09.819Z,101754.44
2022-11-10T02:36:36.653Z,101764.03
2022-11-10T02:39:03.742Z,101765.81
2022-11-10T02:41:30.217Z,101763.25
2022-11-10T02:43:58.034Z,101764.22
2022-11-10T02:46:24.820Z,101773.81
2022-11-10T02:48:51.468Z,101780.75
2022-11-10T02:51:18.281Z,101783.38
2022-11-10T02:53:44.787Z,101784.25
2022-11-10T02:56:11.092Z,101789.44
2022-11-10T02:58:37.761Z,101793.78
2022-11-10T03:01:06.920Z,101796.41
2022-11-10T03:03:34.307Z,101805.94
2022-11-10T03:06:01.364Z,101808.59
2022-11-10T03:08:27.715Z,101800.78
2022-11-10T03:10:56.729Z,101811.19
2022-11-10T03:13:25.125Z,101806.03
2022-11-10T03:15:51.726Z,101806.13
2022-11-10T03:18:18.245Z,101805.25
2022-11-10T03:20:47.433Z,101802.66
2022-11-10T03:23:13.941Z,101807.09
2022-11-10T03:25:40.247Z,101809.69
2022-11-10T03:28:06.724Z,101821.81
2022-11-10T03:30:33.854Z,101821.88
2022-11-10T03:33:00.206Z,101827.00
2022-11-10T03:35:26.982Z,101834.88
2022-11-10T03:37:53.438Z,101840.06
2022-11-10T03:40:19.927Z,101844.47
2022-11-10T03:42:46.751Z,101840.13
2022-11-10T03:45:14.940Z,101839.34
2022-11-10T03:47:44.242Z,101848.88
2022-11-10T03:50:10.819Z,101850.63
2022-11-10T03:52:40.201Z,101864.50
2022-11-10T03:55:06.893Z,101874.06
2022-11-10T03:57:33.205Z,101877.59
2022-11-10T03:59:59.633Z,101877.63
2022-11-10T04:02:25.973Z,101884.63
2022-11-10T04:05:10.795Z,101889.84
2022-11-10T04:07:55.479Z,101895.94
2022-11-10T04:10:21.778Z,101900.31
2022-11-10T04:13:07.075Z,101900.34
2022-11-10T04:15:42.233Z,101909.91
2022-11-10T04:18:25.715Z,101918.53
2022-11-10T04:21:00.765Z,101934.13
2022-11-10T04:23:36.189Z,101928.09
2022-11-10T04:26:29.884Z,101926.38
2022-11-10T04:29:01.885Z,101928.09
2022-11-10T04:31:30.141Z,101935.91
2022-11-10T04:33:57.144Z,101937.66
2022-11-10T04:36:26.469Z,101941.94
2022-11-10T04:38:55.185Z,101937.66
2022-11-10T04:41:23.002Z,101939.34
2022-11-10T04:43:49.341Z,101925.53
2022-11-10T04:46:22.717Z,101934.13
2022-11-10T04:48:49.574Z,101930.72
2022-11-10T04:51:17.165Z,101931.59
2022-11-10T04:53:43.571Z,101936.75
2022-11-10T04:56:15.079Z,101947.16
2022-11-10T04:58:41.828Z,101943.75
2022-11-10T05:01:11.759Z,101950.69
2022-11-10T05:03:38.614Z,101955.97
2022-11-10T05:06:05.536Z,101959.47
2022-11-10T05:08:31.950Z,101963.81
2022-11-10T05:10:58.296Z,101965.56
2022-11-10T05:13:25.008Z,101971.63
2022-11-10T05:15:52.345Z,101972.53
2022-11-10T05:18:18.852Z,101975.13
2022-11-10T05:20:45.298Z,101970.78
2022-11-10T05:23:30.287Z,101968.22
2022-11-10T05:25:56.689Z,101977.75
2022-11-10T05:28:23.266Z,101977.72
2022-11-10T05:30:49.676Z,101982.94
2022-11-10T05:33:16.178Z,101971.72
2022-11-10T05:35:42.691Z,101970.84
2022-11-10T05:38:09.018Z,101972.59
2022-11-10T05:40:36.015Z,101972.59
2022-11-10T05:43:02.457Z,101970.00
2022-11-10T05:45:29.383Z,101979.56
2022-11-10T05:47:56.140Z,101973.50
2022-11-10T05:50:23.264Z,101972.63
2022-11-10T05:52:54.906Z,101966.59
2022-11-10T05:55:27.395Z,101971.75
2022-11-10T05:57:55.122Z,101973.56
2022-11-10T06:00:23.914Z,101990.00
2022-11-10T06:03:23.587Z,101995.25
2022-11-10T06:05:50.194Z,101991.84
2022-11-10T06:08:17.824Z,102002.25
2022-11-10T06:10:44.647Z,102002.25
2022-11-10T06:13:11.025Z,102004.88
2022-11-10T06:15:37.410Z,102016.97
2022-11-10T06:18:04.035Z,102017.03
2022-11-10T06:20:30.857Z,102029.19
2022-11-10T06:23:02.338Z,102031.78
2022-11-10T06:25:34.426Z,102042.16
2022-11-10T06:28:01.672Z,102045.63
2022-11-10T06:30:29.636Z,102045.69
2022-11-10T06:32:56.039Z,102045.69
2022-11-10T06:35:23.361Z,102059.56
2022-11-10T06:38:16.181Z,102054.31
2022-11-10T06:40:42.697Z,102061.31
2022-11-10T06:43:09.147Z,102069.94
2022-11-10T06:45:35.573Z,102057.84
2022-11-10T06:48:04.776Z,102070.78
2022-11-10T06:50:31.893Z,102069.09
2022-11-10T06:53:00.734Z,102071.69
2022-11-10T06:55:27.918Z,102086.44
2022-11-10T06:57:54.348Z,102088.13
2022-11-10T07:00:21.026Z,102098.59
2022-11-10T07:02:47.451Z,102107.22
2022-11-10T07:05:15.332Z,102110.63
2022-11-10T07:07:42.507Z,102116.69
2022-11-10T07:10:09.024Z,102131.41
2022-11-10T07:12:35.382Z,102134.00
2022-11-10T07:15:01.735Z,102131.38
2022-11-10T07:17:28.075Z,102121.00
2022-11-10T07:19:54.553Z,102124.41
2022-11-10T07:22:20.893Z,102119.16
2022-11-10T07:24:47.225Z,102117.44
2022-11-10T07:27:13.575Z,102124.31
2022-11-10T07:29:39.944Z,102129.50
2022-11-10T07:32:06.299Z,102125.13
2022-11-10T07:34:32.768Z,102119.84
2022-11-10T07:36:59.222Z,102111.19
2022-11-10T07:39:25.738Z,102115.53
2022-11-10T07:41:52.836Z,102107.69
2022-11-10T07:44:19.457Z,102119.81
2022-11-10T07:46:45.925Z,102132.75
2022-11-10T07:49:12.314Z,102137.03
2022-11-10T07:51:38.937Z,102146.44
2022-11-10T07:54:05.460Z,102143.78
2022-11-10T07:56:31.941Z,102151.53
2022-11-10T07:58:58.305Z,102141.06
2022-11-10T08:01:24.673Z,102141.88
2022-11-10T08:03:51.069Z,102145.22
2022-11-10T08:06:17.830Z,102149.47
2022-11-10T08:08:46.349Z,102150.19
2022-11-10T08:11:12.925Z,102144.84
2022-11-10T08:13:39.868Z,102149.94
2022-11-10T08:16:06.372Z,102160.16
2022-11-10T08:18:35.451Z,102150.47
2022-11-10T08:21:03.549Z,102164.19
2022-11-10T08:23:30.230Z,102171.03
2022-11-10T08:26:00.879Z,102183.84
2022-11-10T08:28:27.891Z,102189.75
2022-11-10T08:30:55.326Z,102180.03
2022-11-10T08:33:22.283Z,102187.72
2022-11-10T08:35:51.172Z,102195.28
2022-11-10T08:38:22.795Z,102190.84
2022-11-10T08:40:49.522Z,102189.88
2022-11-10T08:43:17.359Z,102197.59
2022-11-10T08:45:44.933Z,102200.16
2022-11-10T08:48:19.225Z,102204.41
2022-11-10T08:50:47.024Z,102200.06
2022-11-10T08:53:15.488Z,102205.22
2022-11-10T08:55:43.400Z,102212.09
2022-11-10T08:58:15.242Z,102216.31
2022-11-10T09:00:41.991Z,102210.19
2022-11-10T09:03:13.644Z,102221.22
2022-11-10T09:05:41.135Z,102224.47
2022-11-10T09:08:08.111Z,102228.63
2022-11-10T09:10:36.576Z,102218.81
2022-11-10T09:13:04.059Z,102215.19
2022-11-10T09:15:31.471Z,102218.31
2022-11-10T09:18:02.461Z,102229.19
2022-11-10T09:20:30.398Z,102220.06
2022-11-10T09:22:56.932Z,102225.75
2022-11-10T09:25:23.945Z,102233.16
2022-11-10T09:27:50.289Z,102239.88
2022-11-10T09:30:18.127Z,102233.38
2022-11-10T09:32:46.514Z,102232.09
2022-11-10T09:35:13.561Z,102227.38
2022-11-10T09:37:40.225Z,102225.50
2022-11-10T09:40:11.768Z,102220.88
2022-11-10T09:42:42.290Z,102225.66
2022-11-10T09:45:25.801Z,102232.47
2022-11-10T09:48:00.191Z,102242.63
2022-11-10T09:50:37.737Z,102255.47
2022-11-10T09:53:10.005Z,102252.69
2022-11-10T09:55:43.454Z,102269.69
2022-11-10T09:58:13.117Z,102269.13
2022-11-10T10:00:42.650Z,102274.75
2022-11-10T10:03:17.150Z,102272.94
2022-11-10T10:06:02.280Z,102273.34
2022-11-10T10:08:46.541Z,102282.06
2022-11-10T10:11:52.122Z,102292.44
2022-11-10T10:14:52.543Z,102296.47
2022-11-10T10:17:41.207Z,102299.91
2022-11-10T10:20:48.366Z,102311.69
2022-11-10T10:23:40.402Z,102310.19
2022-11-10T10:26:15.638Z,102310.38
2022-11-10T10:28:46.409Z,102298.00
2022-11-10T10:31:27.073Z,102303.09
2022-11-10T10:33:54.739Z,102304.69
2022-11-10T10:36:25.256Z,102324.47
2022-11-10T10:38:57.778Z,102314.06
2022-11-10T10:41:27.070Z,102311.50
2022-11-10T10:43:57.162Z,102307.84
2022-11-10T10:46:30.288Z,102298.53
2022-11-10T10:49:29.188Z,102302.97
2022-11-10T10:52:16.955Z,102307.16
2022-11-10T10:54:43.804Z,102307.88
2022-11-10T10:57:21.652Z,102305.75
2022-11-10T10:59:48.212Z,102302.00
2022-11-10T11:02:31.983Z,102301.44
2022-11-10T11:05:12.575Z,102315.56
2022-11-10T11:07:39.432Z,102322.91
2022-11-10T11:10:18.875Z,102324.13
2022-11-10T11:12:45.371Z,102326.16
2022-11-10T11:15:29.405Z,102320.59
2022-11-10T11:17:58.235Z,102339.84
2022-11-10T11:20:46.563Z,102327.06
2022-11-10T11:23:26.435Z,102346.59
2022-11-10T11:26:01.859Z,102355.38
2022-11-10T11:28:44.696Z,102361.16
2022-11-10T11:31:17.032Z,102371.69
2022-11-10T11:33:53.033Z,102374.09
2022-11-10T11:36:45.044Z,102374.16
2022-11-10T11:39:20.521Z,102386.34
2022-11-10T11:42:13.187Z,102377.56
2022-11-10T11:45:07.216Z,102387.81
2022-11-10T11:47:38.849Z,102384.28
2022-11-10T11:50:11.246Z,102387.81
2022-11-10T11:53:00.105Z,102385.31
2022-11-10T11:55:41.805Z,102385.31
2022-11-10T11:58:25.058Z,102393.09
2022-11-10T12:01:13.527Z,102402.66
2022-11-10T12:04:23.359Z,102388.53
2022-11-10T12:07:10.598Z,102397.38
2022-11-10T12:09:51.173Z,102392.38
2022-11-10T12:12:36.716Z,102387.44
2022-11-10T12:15:23.982Z,102390.19
2022-11-10T12:17:56.329Z,102383.28
2022-11-10T12:20:33.604Z,102393.84
2022-11-10T12:23:08.929Z,102393.91
2022-11-10T12:25:45.270Z,102391.09
2022-11-10T12:28:18.424Z,102388.47
2022-11-10T12:30:48.151Z,102385.81
2022-11-10T12:33:46.710Z,102408.00
2022-11-10T12:36:17.387Z,102395.78
2022-11-10T12:39:02.405Z,102409.72
2022-11-10T12:41:36.669Z,102410.63
2022-11-10T12:44:15.401Z,102412.19
2022-11-10T12:46:48.133Z,102412.34
2022-11-10T12:49:21.412Z,102416.00
2022-11-10T12:52:06.461Z,102414.41
2022-11-10T12:54:35.230Z,102422.25
2022-11-10T12:57:07.395Z,102410.25
2022-11-10T12:59:52.299Z,102420.00
2022-11-10T13:02:26.637Z,102408.63
2022-11-10T13:05:14.953Z,102409.34
2022-11-10T13:07:48.005Z,102408.50
2022-11-10T13:10:25.778Z,102414.63
2022-11-10T13:13:04.066Z,102426.09
2022-11-10T13:15:39.538Z,102415.66
2022-11-10T13:18:09.151Z,102418.28
2022-11-10T13:20:41.690Z,102412.22
2022-11-10T13:23:29.719Z,102408.56
2022-11-10T13:25:56.051Z,102399.88
2022-11-10T13:28:48.620Z,102410.25
2022-11-10T13:31:27.285Z,102405.94
2022-11-10T13:34:02.993Z,102411.13
2022-11-10T13:36:39.765Z,102406.78
2022-11-10T13:39:19.117Z,102399.78
2022-11-10T13:41:47.331Z,102404.97
2022-11-10T13:44:41.960Z,102408.19
2022-11-10T13:47:08.503Z,102410.81
2022-11-10T13:50:02.677Z,102410.69
2022-11-10T13:52:59.102Z,102403.69
2022-11-10T13:56:00.994Z,102398.50
2022-11-10T13:58:30.984Z,102398.59
2022-11-10T14:01:19.108Z,102396.75
2022-11-10T14:03:45.756Z,102395.19
2022-11-10T14:06:18.823Z,102395.09
2022-11-10T14:09:11.794Z,102395.06
2022-11-10T14:11:49.972Z,102400.28
2022-11-10T14:14:35.033Z,102403.84
2022-11-10T14:17:01.683Z,102412.53
2022-11-10T14:19:44.459Z,102420.28
2022-11-10T14:22:21.795Z,102433.47
2022-11-10T14:25:04.185Z,102431.69
2022-11-10T14:27:34.846Z,102432.63
2022-11-10T14:30:18.377Z,102437.78
2022-11-10T14:32:44.910Z,102442.34
2022-11-10T14:35:30.033Z,102441.38
2022-11-10T14:38:01.545Z,102436.28
2022-11-10T14:40:29.186Z,102451.22
2022-11-10T14:42:56.070Z,102445.94
2022-11-10T14:45:25.044Z,102456.41
2022-11-10T14:47:53.979Z,102453.78
2022-11-10T14:50:22.544Z,102450.38
2022-11-10T14:52:53.732Z,102460.78
2022-11-10T14:55:27.899Z,102465.94
2022-11-10T14:58:02.874Z,102476.47
2022-11-10T15:00:35.380Z,102452.19
2022-11-10T15:03:02.587Z,102454.06
2022-11-10T15:05:30.875Z,102435.00
2022-11-10T15:07:58.338Z,102438.66
2022-11-10T15:10:27.697Z,102440.56
2022-11-10T15:13:03.482Z,102446.75
2022-11-10T15:15:29.947Z,102453.88
2022-11-10T15:17:56.289Z,102447.88
2022-11-10T15:20:40.382Z,102459.28
2022-11-10T15:23:22.614Z,102456.75
2022-11-10T15:25:52.971Z,102470.94
2022-11-10T15:28:28.998Z,102471.81
2022-11-10T15:31:01.309Z,102470.19
2022-11-10T15:33:32.399Z,102481.53
2022-11-10T15:36:18.975Z,102484.16
2022-11-10T15:39:12.839Z,102493.78
2022-11-10T15:41:43.998Z,102492.97
2022-11-10T15:44:16.671Z,102512.19
2022-11-10T15:46:43.558Z,102514.09
2022-11-10T15:49:31.189Z,102508.88
2022-11-10T15:52:00.671Z,102514.22
2022-11-10T15:54:30.178Z,102510.81
2022-11-10T15:56:56.819Z,102505.63
2022-11-10T15:59:23.247Z,102517.00
2022-11-10T16:01:50.586Z,102511.88
2022-11-10T16:04:17.103Z,102500.59
2022-11-10T16:06:43.487Z,102502.34
2022-11-10T16:09:11.897Z,102505.88
2022-11-10T16:11:40.464Z,102516.38
2022-11-10T16:14:06.827Z,102509.44
2022-11-10T16:16:33.228Z,102518.25
2022-11-10T16:18:59.695Z,102523.59
2022-11-10T16:21:26.310Z,102530.56
2022-11-10T16:23:53.012Z,102528.88
2022-11-10T16:26:22.690Z,102530.63
2022-11-10T16:28:49.855Z,102541.94
2022-11-10T16:31:18.692Z,102537.56
2022-11-10T16:33:46.688Z,102541.94
2022-11-10T16:36:27.312Z,102560.19
2022-11-10T16:38:54.747Z,102555.00
2022-11-10T16:41:21.664Z,102565.47
2022-11-10T16:43:48.034Z,102570.69
2022-11-10T16:46:23.739Z,102570.66
2022-11-10T16:48:53.647Z,102568.97
2022-11-10T16:51:28.530Z,102568.06
2022-11-10T16:53:55.020Z,102563.84
2022-11-10T16:56:21.586Z,102575.22
2022-11-10T16:58:48.079Z,102577.88
2022-11-10T17:01:21.568Z,102573.50
2022-11-10T17:03:51.196Z,102577.03
2022-11-10T17:06:18.895Z,102571.06
2022-11-10T17:08:48.744Z,102571.13
2022-11-10T17:11:16.307Z,102569.47
2022-11-10T17:13:42.799Z,102575.66
2022-11-10T17:16:22.186Z,102572.13
2022-11-10T17:18:49.578Z,102574.88
2022-11-10T17:21:16.428Z,102570.59
2022-11-10T17:23:42.854Z,102581.09
2022-11-10T17:26:11.795Z,102587.28
2022-11-10T17:28:38.178Z,102585.56
2022-11-10T17:31:04.830Z,102580.41
2022-11-10T17:33:31.311Z,102587.44
2022-11-10T17:35:58.445Z,102571.78
2022-11-10T17:38:30.300Z,102575.31
2022-11-10T17:40:56.970Z,102571.94
2022-11-10T17:43:23.998Z,102577.25
2022-11-10T17:45:51.320Z,102582.63
2022-11-10T17:48:17.647Z,102596.66
2022-11-10T17:50:46.819Z,102586.31
2022-11-10T17:53:33.613Z,102588.97
2022-11-10T17:55:59.986Z,102590.84
2022-11-10T17:58:26.358Z,102580.50
2022-11-10T18:00:52.754Z,102585.81
2022-11-10T18:03:21.589Z,102582.41
2022-11-10T18:05:48.730Z,102585.06
2022-11-10T18:08:16.988Z,102587.81
2022-11-10T18:10:50.719Z,102582.63
2022-11-10T18:13:18.425Z,102581.84
2022-11-10T18:15:46.350Z,102575.00
2022-11-10T18:18:14.325Z,102582.94
2022-11-10T18:20:41.289Z,102583.91
2022-11-10T18:23:11.381Z,102576.16
2022-11-10T18:25:42.596Z,102581.44
2022-11-10T18:28:13.633Z,102591.94
2022-11-10T18:30:40.918Z,102595.53
2022-11-10T18:33:07.644Z,102577.38
2022-11-10T18:35:37.813Z,102581.78
2022-11-10T18:38:05.310Z,102584.47
2022-11-10T18:40:31.829Z,102588.88
2022-11-10T18:43:06.896Z,102587.22
2022-11-10T18:45:33.818Z,102585.56
2022-11-10T18:48:02.968Z,102578.66
2022-11-10T18:50:29.746Z,102584.75
2022-11-10T18:52:56.170Z,102598.72
2022-11-10T18:55:22.727Z,102590.91
2022-11-10T18:57:49.172Z,102591.84
2022-11-10T19:00:16.014Z,102597.06
2022-11-10T19:02:42.674Z,102598.06
2022-11-10T19:05:09.153Z,102595.44
2022-11-10T19:07:35.551Z,102599.78
2022-11-10T19:10:01.949Z,102609.38
2022-11-10T19:12:28.353Z,102613.75
2022-11-10T19:14:54.762Z,102624.16
2022-11-10T19:17:21.073Z,102622.47
2022-11-10T19:19:49.868Z,102612.06
2022-11-10T19:22:19.947Z,102630.38
2022-11-10T19:25:06.375Z,102630.41
2022-11-10T19:27:32.958Z,102629.53
2022-11-10T19:29:59.277Z,102630.50
2022-11-10T19:32:25.635Z,102627.88
2022-11-10T19:34:51.967Z,102631.41
2022-11-10T19:37:18.273Z,102631.34
2022-11-10T19:39:44.587Z,102627.09
2022-11-10T19:42:11.267Z,102624.59
2022-11-10T19:44:37.678Z,102636.78
2022-11-10T19:47:04.026Z,102628.13
2022-11-10T19:49:30.482Z,102641.25
2022-11-10T19:51:56.807Z,102635.19
2022-11-10T19:54:23.140Z,102643.03
2022-11-10T19:56:50.156Z,102643.94
2022-11-10T19:59:19.125Z,102645.69
2022-11-10T20:01:46.130Z,102640.56
2022-11-10T20:04:13.829Z,102634.50
2022-11-10T20:06:40.281Z,102639.72
2022-11-10T20:09:06.825Z,102639.75
2022-11-10T20:11:33.197Z,102637.22
2022-11-10T20:14:00.551Z,102640.69
2022-11-10T20:16:27.127Z,102632.03
2022-11-10T20:18:53.678Z,102637.34
2022-11-10T20:21:23.432Z,102637.38
2022-11-10T20:23:55.521Z,102640.91
2022-11-10T20:26:22.618Z,102637.53
2022-11-10T20:28:49.266Z,102642.72
2022-11-10T20:31:23.571Z,102647.09
2022-11-10T20:33:52.654Z,102648.00
2022-11-10T20:36:22.303Z,102650.69
2022-11-10T20:38:49.679Z,102654.22
2022-11-10T20:41:19.432Z,102643.81
2022-11-10T20:43:45.975Z,102642.16
2022-11-10T20:46:33.291Z,102650.81
2022-11-10T20:49:01.604Z,102651.75
2022-11-10T20:51:27.977Z,102656.16
2022-11-10T20:53:55.005Z,102658.75
2022-11-10T20:56:26.724Z,102664.00
2022-11-10T20:58:55.700Z,102663.19
2022-11-10T21:01:23.219Z,102661.50
2022-11-10T21:03:49.669Z,102666.72
2022-11-10T21:06:16.130Z,102660.66
2022-11-10T21:08:42.875Z,102644.19
2022-11-10T21:11:09.801Z,102646.84
2022-11-10T21:13:37.092Z,102652.91
2022-11-10T21:16:06.060Z,102651.22
2022-11-10T21:18:36.599Z,102664.28
2022-11-10T21:21:04.630Z,102671.28
2022-11-10T21:23:31.113Z,102690.34
2022-11-10T21:25:59.679Z,102689.50
2022-11-10T21:28:26.569Z,102698.25
2022-11-10T21:31:01.289Z,102702.56
2022-11-10T21:33:27.807Z,102712.22
2022-11-10T21:35:54.213Z,102715.69
2022-11-10T21:38:20.613Z,102711.28
2022-11-10T21:40:46.982Z,102727.78
2022-11-10T21:43:13.780Z,102737.31
2022-11-10T21:45:40.147Z,102732.97
2022-11-10T21:48:07.024Z,102732.13
2022-11-10T21:50:35.779Z,102741.66
2022-11-10T21:53:09.290Z,102746.84
2022-11-10T21:55:38.522Z,102739.97
2022-11-10T21:58:04.861Z,102747.84
2022-11-10T22:00:31.905Z,102739.13
2022-11-10T22:03:03.495Z,102736.50
2022-11-10T22:05:29.832Z,102743.53
2022-11-10T22:07:56.201Z,102734.94
2022-11-10T22:10:45.755Z,102728.03
2022-11-10T22:13:39.527Z,102728.97
2022-11-10T22:16:37.478Z,102755.09
2022-11-10T22:19:06.930Z,102765.56
2022-11-10T22:21:33.299Z,102769.09
2022-11-10T22:24:18.230Z,102751.69
2022-11-10T22:26:44.813Z,102758.66
2022-11-10T22:29:11.284Z,102762.13
2022-11-10T22:31:37.743Z,102762.94
2022-11-10T22:34:04.121Z,102755.13
2022-11-10T22:36:31.287Z,102755.97
2022-11-10T22:39:02.995Z,102771.59
2022-11-10T22:41:48.642Z,102772.47
2022-11-10T22:44:15.092Z,102759.41
2022-11-10T22:46:45.775Z,102762.06
2022-11-10T22:49:14.919Z,102755.97
2022-11-10T22:51:43.340Z,102774.19
2022-11-10T22:54:11.551Z,102779.41
2022-11-10T22:56:38.571Z,102782.00
2022-11-10T22:59:05.116Z,102776.78
2022-11-10T23:01:32.110Z,102779.47
2022-11-10T23:03:59.797Z,102777.72
2022-11-10T23:06:27.073Z,102782.09
2022-11-10T23:08:54.305Z,102783.84
2022-11-10T23:11:23.061Z,102795.97
2022-11-10T23:13:50.773Z,102792.53
2022-11-10T23:16:23.525Z,102796.06
2022-11-10T23:18:52.288Z,102803.91
2022-11-10T23:21:20.784Z,102798.78
2022-11-10T23:23:48.194Z,102795.34
2022-11-10T23:26:17.610Z,102793.66
2022-11-10T23:28:44.322Z,102789.38
2022-11-10T23:31:14.182Z,102787.66
2022-11-10T23:33:42.062Z,102794.66
2022-11-10T23:36:11.294Z,102794.66
2022-11-10T23:38:38.380Z,102797.31
2022-11-10T23:41:06.712Z,102795.56
2022-11-10T23:43:33.709Z,102793.03
2022-11-10T23:46:08.168Z,102793.91
2022-11-10T23:48:35.902Z,102792.22
2022-11-10T23:51:02.846Z,102805.22
2022-11-10T23:53:29.430Z,102794.84
2022-11-10T23:56:00.237Z,102795.75
2022-11-10T23:58:27.123Z,102801.03
